Hauptseite
METAR-TAF:

METAR-TAF

Flughäfen :

Harriman-and-West Airport

North Adams, Massachusetts, Vereinigte Staaten

Breite: 42-41-50N, Länge: 073-10-13W, Höhe: 199 m

Beobachtung

Neuester Wetterbericht von vor 8 Minuten, um 04:52 UTC
Wind 9 kt aus Ost, Böen bis zu 14 kt, variierte zwischen Nordost und Ost/Südost
Temperatur 6°C
Luftfeuchtigkeit 81%
Luftdruck 1016 hPa
Sichtweite: 9.7 km
Geschlossene Wolkendecke in der Höhe von 1700 ft
Leichtregen, feuchter Dunst

METAR: KAQW 140452Z AUTO 08009G14KT 050V110 6SM -RA BR OVC017 06/03 A3001 RMK AO2 SLP169 P0002 T00560033 400561056 TSNO

Zeit: 00:00 (05:00 UTC)


TAF: fehlend

Wetterbeobachtungen und Prognosen von mehr als 4000 Flughäfen (METAR und TAF Bericht).

Die verfügbaren Stationen werden durch gelbe und rote Markierungen auf der Karte dargestellt.

Führen Sie die Maus auf sie, um den Namen der Station zu sehen.

Darauf klicken, um die Beobachtung von Wetterbeobachtungen und Prognosen zu sehen.

Um die Karte zu ändern : klicken Sie auf den grünen Tasten mit einem schwarzen Kreuz Zum Vergrößern, auf den grünen Button mit einem Gedankenstrich zu verkleinern, oder auf die grünen Pfeile für benachbarte Karten.


METAR-TAF: